»·PEaware :: N525SA KUAO-KSJC

N525SA :: KUAO-KSJC

FLIGHT INFORMATION

Flight Status: Arrived
Operator: Privately registered:
United States
More flights under this callsign
Pilot: Utku A. (15598)
Aircraft: SOCATA TBM-900
(TBM9)
More flights by this aircraft type
Origin: KUAO Aurora State
United States
Destination: KSJC Mineta San Jose Intl
United States
More flights between these airports :: More routes between these airports
Route: +GNNET PYE PYE3
File this flight plan on PilotEdge
Remarks:
Altitude:
(Current/Filed)
25,000ft
Speed:
(Current/Filed)
300kts
Departed: 31-Oct-18 11:59 AM
Arrived: 31-Oct-18 01:39 PM
Distance/Time
Traveled:
475nm/1:40
Distance/Time
To Go:
Arrived

Flight Plot

Page will automatically refresh every two minutes.

Flight plan parsing failed; only flown route is shown


Map Options




Map Legend


Flown Route
Filed Route
Departure Airport
Arrival Airport
Navaid (VOR, NDB)
Fix

Horizontal Profiles

Position Reports

Time Latitude Longitude Heading Altitude Ground
Speed
31-Oct-18 11:37 45.254959 -122.766354 96 200ft 0kts
31-Oct-18 11:38 45.254959 -122.766354 96 200ft 0kts
31-Oct-18 11:39 45.254959 -122.766355 96 200ft 0kts
31-Oct-18 11:40 45.254959 -122.766355 96 200ft 0kts
31-Oct-18 11:41 45.254959 -122.766354 96 200ft 0kts
31-Oct-18 11:42 45.254959 -122.766354 96 200ft 0kts
31-Oct-18 11:43 45.254959 -122.766354 96 200ft 0kts
31-Oct-18 11:44 45.254959 -122.766354 96 200ft 0kts
31-Oct-18 11:45 45.254959 -122.766354 96 200ft 0kts
31-Oct-18 11:46 45.254959 -122.766354 96 200ft 0kts
31-Oct-18 11:48 45.254959 -122.766354 96 200ft 0kts
31-Oct-18 11:49 45.254959 -122.766354 96 200ft 0kts
31-Oct-18 11:50 45.254959 -122.766354 96 200ft 0kts
31-Oct-18 11:51 45.254959 -122.766354 96 200ft 0kts
31-Oct-18 11:52 45.254959 -122.766354 96 200ft 0kts
31-Oct-18 11:53 45.254959 -122.766354 96 200ft 0kts
31-Oct-18 11:54 45.253831 -122.767338 264 200ft 7kts
31-Oct-18 11:55 45.253808 -122.767684 267 200ft 0kts
31-Oct-18 11:56 45.253808 -122.767684 267 200ft 0kts
31-Oct-18 11:57 45.253808 -122.767684 267 200ft 0kts
31-Oct-18 11:58 45.253808 -122.767684 267 200ft 0kts
31-Oct-18 11:59 45.253808 -122.767684 267 200ft 0kts
31-Oct-18 12:00 45.253808 -122.767684 267 200ft 0kts
31-Oct-18 12:01 45.253816 -122.767834 276 200ft 5kts
31-Oct-18 12:02 45.241041 -122.770808 188 770ft 96kts
31-Oct-18 12:03 45.215503 -122.782591 197 2645ft 107kts
31-Oct-18 12:04 45.188086 -122.798215 206 4793ft 111kts
31-Oct-18 12:05 45.157926 -122.815518 208 6908ft 124kts
31-Oct-18 12:06 45.125776 -122.833588 210 8961ft 129kts
31-Oct-18 12:07 45.089580 -122.846669 191 10732ft 149kts
31-Oct-18 12:08 45.040541 -122.847110 188 12159ft 195kts
31-Oct-18 12:09 44.985209 -122.847245 188 13956ft 204kts
31-Oct-18 12:10 44.927252 -122.847432 189 15580ft 213kts
31-Oct-18 12:11 44.868544 -122.847626 189 17010ft 220kts
31-Oct-18 12:12 44.805781 -122.847830 189 18719ft 229kts
31-Oct-18 12:13 44.741920 -122.848046 190 20395ft 237kts
31-Oct-18 12:14 44.674985 -122.848268 190 21890ft 246kts
31-Oct-18 12:15 44.605659 -122.848494 190 23238ft 253kts
31-Oct-18 12:16 44.534500 -122.848733 190 24444ft 260kts
31-Oct-18 12:17 44.459897 -122.849061 189 25043ft 287kts
31-Oct-18 12:18 44.376171 -122.849290 188 25050ft 314kts
31-Oct-18 12:19 44.287263 -122.849561 188 25062ft 328kts
31-Oct-18 12:20 44.193943 -122.849845 187 25120ft 339kts
31-Oct-18 12:21 44.102473 -122.850103 188 26055ft 322kts
31-Oct-18 12:22 44.013883 -122.850416 189 26855ft 321kts
31-Oct-18 12:23 43.922933 -122.850741 188 27068ft 338kts
31-Oct-18 12:24 43.829347 -122.851026 188 27052ft 351kts
31-Oct-18 12:25 43.731580 -122.851322 187 27052ft 356kts
31-Oct-18 12:26 43.632624 -122.851638 187 27057ft 358kts
31-Oct-18 12:27 43.533289 -122.851947 187 27076ft 358kts
31-Oct-18 12:28 43.433716 -122.852266 187 27081ft 359kts
31-Oct-18 12:29 43.333865 -122.852583 187 27083ft 360kts
31-Oct-18 12:30 43.233893 -122.852892 187 27084ft 360kts
31-Oct-18 12:31 43.133983 -122.853202 187 27087ft 360kts
31-Oct-18 12:32 43.034216 -122.853519 187 27092ft 361kts
31-Oct-18 12:33 42.933528 -122.853870 187 27121ft 365kts
31-Oct-18 12:34 42.834467 -122.854151 186 27129ft 370kts
31-Oct-18 12:35 42.731027 -122.854458 186 27131ft 373kts
31-Oct-18 12:36 42.627633 -122.854778 186 27131ft 374kts
31-Oct-18 12:37 42.524203 -122.855093 186 27134ft 375kts
31-Oct-18 12:38 42.420645 -122.855410 186 27136ft 375kts
31-Oct-18 12:39 42.316299 -122.855727 186 27137ft 376kts
31-Oct-18 12:40 42.212050 -122.856042 186 27138ft 376kts
31-Oct-18 12:41 42.107578 -122.856360 186 27139ft 376kts
31-Oct-18 12:42 42.003069 -122.856675 186 27131ft 377kts
31-Oct-18 12:42 41.915879 -122.856943 186 27119ft 378kts
31-Oct-18 12:44 41.796658 -122.857293 186 27101ft 375kts
31-Oct-18 12:44 41.710626 -122.857551 186 27103ft 375kts
31-Oct-18 12:46 41.589484 -122.857916 186 27105ft 375kts
31-Oct-18 12:46 41.502610 -122.858170 186 27107ft 375kts
31-Oct-18 12:48 41.381879 -122.858531 186 27094ft 376kts
31-Oct-18 12:48 41.294653 -122.858783 186 27067ft 376kts
31-Oct-18 12:50 41.174907 -122.859142 186 27058ft 376kts
31-Oct-18 12:50 41.087685 -122.859456 185 27060ft 376kts
31-Oct-18 12:52 40.966067 -122.859853 181 27062ft 376kts
31-Oct-18 12:52 40.882037 -122.859998 181 27047ft 375kts
31-Oct-18 12:53 40.778157 -122.860298 181 27047ft 372kts
31-Oct-18 12:54 40.675002 -122.860597 181 27049ft 372kts
31-Oct-18 12:55 40.571867 -122.860892 181 27049ft 372kts
31-Oct-18 12:56 40.469266 -122.861194 181 27047ft 372kts
31-Oct-18 12:57 40.365924 -122.861486 181 27048ft 372kts
31-Oct-18 12:58 40.262711 -122.861781 181 27050ft 373kts
31-Oct-18 12:59 40.159109 -122.862077 181 27052ft 373kts
31-Oct-18 13:00 40.055297 -122.862373 181 27011ft 374kts
31-Oct-18 13:01 39.951457 -122.862667 181 26980ft 375kts
31-Oct-18 13:02 39.850275 -122.862953 181 26965ft 373kts
31-Oct-18 13:03 39.747070 -122.863245 181 26967ft 372kts
31-Oct-18 13:04 39.643709 -122.863535 181 26969ft 371kts
31-Oct-18 13:05 39.540577 -122.863824 181 26971ft 372kts
31-Oct-18 13:06 39.437380 -122.864112 181 26972ft 372kts
31-Oct-18 13:07 39.333453 -122.864409 181 26560ft 383kts
31-Oct-18 13:08 39.225687 -122.864705 181 25812ft 391kts
31-Oct-18 13:09 39.117464 -122.865002 181 25061ft 391kts
31-Oct-18 13:10 39.009309 -122.865311 181 24311ft 388kts
31-Oct-18 13:11 38.904037 -122.865604 180 24172ft 369kts
31-Oct-18 13:12 38.816754 -122.865832 180 24124ft 361kts
31-Oct-18 13:13 38.714698 -122.866110 180 23145ft 376kts
31-Oct-18 13:14 38.610933 -122.866396 180 22136ft 369kts
31-Oct-18 13:15 38.509225 -122.866670 180 20782ft 361kts
31-Oct-18 13:16 38.413210 -122.866931 180 19262ft 336kts
31-Oct-18 13:17 38.321277 -122.867181 180 17764ft 327kts
31-Oct-18 13:18 38.231594 -122.867422 180 16285ft 321kts
31-Oct-18 13:19 38.143228 -122.867659 180 14810ft 316kts
31-Oct-18 13:20 38.057194 -122.858221 158 13332ft 307kts
31-Oct-18 13:21 37.979344 -122.824152 158 11861ft 297kts
31-Oct-18 13:22 37.902990 -122.791038 158 10997ft 275kts
31-Oct-18 13:23 37.831856 -122.760220 158 11013ft 279kts
31-Oct-18 13:24 37.754806 -122.726892 159 10026ft 302kts
31-Oct-18 13:25 37.675124 -122.692566 159 8835ft 305kts
31-Oct-18 13:26 37.595752 -122.658441 160 7690ft 298kts
31-Oct-18 13:27 37.519730 -122.625834 160 7172ft 285kts
31-Oct-18 13:28 37.445064 -122.593845 160 6642ft 284kts
31-Oct-18 13:29 37.401573 -122.526108 90 6044ft 266kts
31-Oct-18 13:30 37.397721 -122.433875 86 5557ft 263kts
31-Oct-18 13:31 37.394724 -122.344835 88 5084ft 264kts
31-Oct-18 13:32 37.390331 -122.256752 93 5006ft 243kts
31-Oct-18 13:33 37.389585 -122.179095 85 4595ft 202kts
31-Oct-18 13:34 37.384701 -122.109411 97 3503ft 196kts
31-Oct-18 13:35 37.375628 -122.045013 98 2476ft 178kts
31-Oct-18 13:36 37.366490 -121.987972 103 1598ft 159kts
31-Oct-18 13:37 37.343495 -121.945896 130 1496ft 148kts
31-Oct-18 13:38 37.330475 -121.911953 46 941ft 98kts
31-Oct-18 13:39 37.350359 -121.916311 316 276ft 82kts
31-Oct-18 13:40 37.363782 -121.931123 323 46ft 42kts
31-Oct-18 13:41 37.366501 -121.935502 227 42ft 0kts
31-Oct-18 13:42 37.364595 -121.936610 179 43ft 10kts
31-Oct-18 13:43 37.362616 -121.935306 139 47ft 9kts
31-Oct-18 13:44 37.360208 -121.933263 202 49ft 10kts
31-Oct-18 13:45 37.360292 -121.933679 48 49ft 0kts
31-Oct-18 13:46 37.360292 -121.933679 49 49ft 0kts
31-Oct-18 13:48 37.360292 -121.933679 49 49ft 0kts
31-Oct-18 13:48 37.360292 -121.933679 49 49ft 0kts
31-Oct-18 13:49 37.360292 -121.933679 49 49ft 0kts
31-Oct-18 13:50 37.360292 -121.933679 49 49ft 0kts
31-Oct-18 13:51 37.360292 -121.933679 49 49ft 0kts
31-Oct-18 13:52 37.360292 -121.933679 49 49ft 0kts
31-Oct-18 13:53 37.360292 -121.933679 49 49ft 0kts
31-Oct-18 13:54 37.360292 -121.933679 49 49ft 0kts
31-Oct-18 13:55 37.360292 -121.933679 49 49ft 0kts

Navigation Log

Ident Type
Flight plan parsing failed, navigation log unavailable